Time;durP1;ratioP1;P1;durP2;ratioP2;P2;SDS_P1;SDS_P2;PMS_P1;PMS_P2;Temp;Humidity;BMP_temperature;BMP_pressure;BME280_temperature;BME280_humidity;BME280_pressure;Samples;Min_cycle;Max_cycle;Signal;HPM_P1;HPM_P2
2022/03/26 05:05:57;;;;;;;44.20;31.73;;;3.40;99.90;;;;;;5739228;23;20555;-69
2022/03/26 05:08:23;;;;;;;44.53;34.47;;;3.40;99.90;;;;;;4911892;29;20959;-72
2022/03/26 05:10:50;;;;;;;39.83;33.13;;;3.30;99.90;;;;;;4902684;29;20464;-73
2022/03/26 05:13:17;;;;;;;45.80;34.03;;;3.20;99.90;;;;;;4914601;29;20519;-73
2022/03/26 05:15:44;;;;;;;44.13;33.13;;;3.20;99.90;;;;;;4906475;29;20548;-72
2022/03/26 05:18:13;;;;;;;46.83;34.13;;;3.10;99.90;;;;;;4896336;29;20459;-72
2022/03/26 05:20:39;;;;;;;49.63;36.30;;;3.10;99.90;;;;;;4896268;29;20464;-73
2022/03/26 05:23:08;;;;;;;52.17;34.57;;;3.00;99.90;;;;;;4896498;29;20880;-74
2022/03/26 05:25:35;;;;;;;77.83;36.53;;;2.90;99.90;;;;;;4896426;29;20463;-73
2022/03/26 05:28:03;;;;;;;44.83;35.03;;;3.10;99.90;;;;;;4896098;29;20510;-73
2022/03/26 05:30:29;;;;;;;44.37;33.20;;;3.30;99.90;;;;;;4896089;29;20454;-72
2022/03/26 05:32:56;;;;;;;42.37;34.03;;;3.50;99.90;;;;;;4896004;29;20498;-72
2022/03/26 05:35:23;;;;;;;43.77;31.67;;;3.50;99.90;;;;;;4895439;29;20873;-73
2022/03/26 05:37:51;;;;;;;43.63;32.63;;;3.50;99.90;;;;;;4896204;29;20455;-73
2022/03/26 05:40:21;;;;;;;42.43;33.20;;;3.50;99.90;;;;;;4896004;29;20464;-73
2022/03/26 05:42:49;;;;;;;45.53;34.20;;;3.40;99.90;;;;;;4895999;29;20495;-74
2022/03/26 05:45:17;;;;;;;54.47;35.47;;;3.40;99.90;;;;;;4895746;29;20470;-73
2022/03/26 05:47:43;;;;;;;40.50;32.30;;;3.50;99.90;;;;;;4895645;29;20581;-74
2022/03/26 05:50:12;;;;;;;42.13;33.17;;;3.50;99.90;;;;;;4895774;29;20458;-74
2022/03/26 05:52:40;;;;;;;47.93;35.17;;;3.60;99.90;;;;;;4895848;29;20451;-74
2022/03/26 05:55:08;;;;;;;41.67;33.97;;;3.60;99.90;;;;;;4895622;29;20459;-73
2022/03/26 05:57:36;;;;;;;41.90;33.30;;;3.70;99.90;;;;;;4895766;29;20470;-73
2022/03/26 06:00:04;;;;;;;44.63;34.67;;;3.70;99.90;;;;;;4895745;29;20487;-72
2022/03/26 06:02:31;;;;;;;51.80;38.23;;;3.80;99.90;;;;;;4895740;29;20595;-74
2022/03/26 06:04:58;;;;;;;55.63;44.37;;;3.80;99.90;;;;;;4895521;29;21034;-73
2022/03/26 06:07:24;;;;;;;55.07;43.20;;;4.10;99.90;;;;;;4895528;29;20912;-73
2022/03/26 06:09:51;;;;;;;49.13;31.20;;;4.60;99.90;;;;;;4895753;29;20524;-73
2022/03/26 06:12:18;;;;;;;41.70;34.20;;;5.00;99.90;;;;;;4895997;29;20466;-72
2022/03/26 06:14:46;;;;;;;37.17;32.43;;;5.40;99.90;;;;;;4895966;29;20506;-72
2022/03/26 06:17:12;;;;;;;41.63;31.90;;;5.90;99.90;;;;;;4895498;29;21291;-73
2022/03/26 06:19:39;;;;;;;42.50;31.67;;;6.20;99.90;;;;;;4895520;29;21050;-73
2022/03/26 06:22:06;;;;;;;40.60;30.50;;;6.50;99.90;;;;;;4895313;29;20903;-73
2022/03/26 06:24:33;;;;;;;41.80;33.63;;;7.10;99.90;;;;;;4895489;29;20459;-73
2022/03/26 06:26:59;;;;;;;41.53;35.03;;;7.60;99.90;;;;;;4895467;29;20462;-74
2022/03/26 06:29:26;;;;;;;39.97;32.50;;;8.00;99.90;;;;;;4895480;29;20802;-73
2022/03/26 06:31:54;;;;;;;38.30;31.40;;;8.50;99.90;;;;;;4895074;29;20459;-72
2022/03/26 06:34:24;;;;;;;41.07;33.87;;;9.00;99.90;;;;;;4895526;29;20466;-72
2022/03/26 06:36:50;;;;;;;36.00;30.60;;;9.10;99.80;;;;;;4895391;29;20459;-73
2022/03/26 06:39:17;;;;;;;46.03;33.00;;;9.50;99.00;;;;;;4895398;29;20449;-75
2022/03/26 06:41:44;;;;;;;42.20;36.30;;;9.70;98.20;;;;;;4895197;29;20520;-73
2022/03/26 06:44:12;;;;;;;37.73;33.63;;;10.00;96.50;;;;;;4895313;29;20975;-72
2022/03/26 06:46:40;;;;;;;36.83;32.73;;;10.40;95.60;;;;;;4896094;29;20561;-70
2022/03/26 06:49:09;;;;;;;35.70;31.90;;;10.80;94.50;;;;;;4899418;29;20466;-70
2022/03/26 06:51:36;;;;;;;35.23;31.63;;;11.10;93.40;;;;;;4898872;29;20455;-73
2022/03/26 06:54:03;;;;;;;35.77;31.87;;;11.40;92.40;;;;;;4898893;29;20702;-72
2022/03/26 06:56:29;;;;;;;37.97;33.80;;;11.30;92.50;;;;;;4898951;29;20458;-73
2022/03/26 06:58:56;;;;;;;36.43;32.50;;;11.70;91.70;;;;;;4897686;29;20836;-73
2022/03/26 07:01:23;;;;;;;37.10;32.33;;;12.00;91.00;;;;;;4897488;29;20502;-73
2022/03/26 07:03:50;;;;;;;39.70;35.07;;;12.30;90.10;;;;;;4897496;29;20566;-73
2022/03/26 07:06:19;;;;;;;37.27;32.90;;;12.60;88.70;;;;;;4897041;29;20486;-74
2022/03/26 07:08:46;;;;;;;37.17;32.80;;;12.60;87.50;;;;;;4897191;29;20466;-73
2022/03/26 07:11:13;;;;;;;37.60;33.50;;;12.70;86.00;;;;;;4897147;29;20454;-74
2022/03/26 07:13:39;;;;;;;39.73;35.20;;;12.80;85.80;;;;;;4897316;29;20993;-74
2022/03/26 07:16:07;;;;;;;39.07;33.80;;;13.10;83.90;;;;;;4897476;29;20791;-75
2022/03/26 07:18:34;;;;;;;41.13;36.30;;;13.60;81.40;;;;;;4897210;29;20499;-73
2022/03/26 07:21:01;;;;;;;41.80;35.87;;;13.60;80.80;;;;;;4897134;29;20992;-72
2022/03/26 07:23:29;;;;;;;38.20;34.30;;;14.00;79.60;;;;;;4896825;29;20554;-74
2022/03/26 07:25:56;;;;;;;38.83;34.93;;;14.20;78.40;;;;;;4895556;29;20532;-73
2022/03/26 07:28:23;;;;;;;39.07;35.23;;;14.60;76.30;;;;;;4897332;29;20467;-72
2022/03/26 07:30:50;;;;;;;43.07;35.37;;;15.10;74.80;;;;;;4897408;29;20521;-74
2022/03/26 07:33:17;;;;;;;39.63;35.23;;;15.20;73.40;;;;;;4896941;29;20455;-74
2022/03/26 07:35:44;;;;;;;41.30;36.53;;;15.60;71.90;;;;;;4896792;29;20455;-73
2022/03/26 07:38:11;;;;;;;41.50;37.43;;;15.90;69.70;;;;;;4896770;29;20492;-74
2022/03/26 07:40:39;;;;;;;39.00;34.80;;;15.80;68.60;;;;;;4896972;29;20456;-75
2022/03/26 07:43:08;;;;;;;39.00;34.87;;;15.80;68.60;;;;;;4896987;29;20491;-75
2022/03/26 07:45:35;;;;;;;39.53;35.50;;;15.90;68.10;;;;;;4896970;29;20563;-74
2022/03/26 07:48:02;;;;;;;40.70;36.30;;;16.10;67.50;;;;;;4897036;29;20460;-74
2022/03/26 07:50:29;;;;;;;40.30;36.17;;;16.00;66.60;;;;;;4892459;29;21001;-75
2022/03/26 07:52:55;;;;;;;46.57;37.53;;;16.40;66.50;;;;;;4897156;29;20973;-75
2022/03/26 07:55:22;;;;;;;40.30;34.40;;;16.70;64.70;;;;;;4897368;29;20455;-74
2022/03/26 07:57:50;;;;;;;39.50;35.60;;;16.90;63.80;;;;;;4897242;29;20824;-74
2022/03/26 08:00:17;;;;;;;41.17;37.10;;;17.50;62.30;;;;;;4897076;29;20466;-74
2022/03/26 08:02:44;;;;;;;39.13;34.97;;;18.00;60.70;;;;;;4896966;29;20562;-74
2022/03/26 08:05:11;;;;;;;40.50;36.53;;;18.10;59.50;;;;;;4897161;29;20476;-74
2022/03/26 08:07:37;;;;;;;40.33;36.43;;;18.30;59.30;;;;;;4897024;29;20486;-75
2022/03/26 08:10:05;;;;;;;42.03;37.53;;;18.40;58.00;;;;;;4897196;29;20463;-75
2022/03/26 08:12:32;;;;;;;35.77;32.13;;;19.00;57.50;;;;;;4897158;29;20451;-74
2022/03/26 08:15:00;;;;;;;39.00;35.30;;;19.10;59.00;;;;;;4896723;29;21008;-75
2022/03/26 08:17:29;;;;;;;41.50;37.33;;;19.00;56.20;;;;;;4896998;29;20561;-74
2022/03/26 08:19:56;;;;;;;37.87;34.20;;;18.80;56.00;;;;;;4896858;29;20515;-75
2022/03/26 08:22:22;;;;;;;44.00;35.30;;;19.10;57.20;;;;;;4896895;29;20542;-75
2022/03/26 08:24:49;;;;;;;39.67;35.77;;;19.40;55.40;;;;;;4897125;29;20451;-74
2022/03/26 08:27:16;;;;;;;37.47;34.00;;;19.90;54.00;;;;;;4896650;29;20467;-75
2022/03/26 08:29:42;;;;;;;36.87;33.57;;;19.70;53.20;;;;;;4896661;29;20857;-74
2022/03/26 08:32:10;;;;;;;39.00;35.00;;;19.80;52.30;;;;;;4896710;29;20455;-74
2022/03/26 08:34:37;;;;;;;41.07;36.03;;;19.70;52.40;;;;;;4896678;29;20463;-74
2022/03/26 08:37:04;;;;;;;39.83;36.03;;;20.20;52.50;;;;;;4896811;29;20460;-74
2022/03/26 08:39:31;;;;;;;40.13;36.50;;;20.10;51.10;;;;;;4896868;29;20459;-75
2022/03/26 08:41:57;;;;;;;38.93;35.17;;;20.00;51.20;;;;;;4896872;29;20475;-74
2022/03/26 08:44:24;;;;;;;39.80;36.10;;;20.20;52.50;;;;;;4896829;29;20451;-75
2022/03/26 08:46:51;;;;;;;39.43;35.53;;;20.60;50.60;;;;;;4897169;29;20463;-72
2022/03/26 08:49:19;;;;;;;39.20;35.20;;;20.90;50.10;;;;;;4896776;29;20511;-75
2022/03/26 08:51:46;;;;;;;39.40;35.57;;;21.00;49.70;;;;;;4896644;29;20463;-74
2022/03/26 08:54:12;;;;;;;42.80;35.80;;;21.30;48.60;;;;;;4896702;29;20447;-75
2022/03/26 08:56:39;;;;;;;39.97;36.17;;;21.40;48.80;;;;;;4896643;29;20455;-76
2022/03/26 08:59:06;;;;;;;40.53;36.53;;;21.90;48.20;;;;;;4896631;29;20459;-76
2022/03/26 09:01:33;;;;;;;39.10;35.50;;;22.60;46.50;;;;;;4896708;29;20463;-75
2022/03/26 09:04:00;;;;;;;40.17;36.30;;;22.90;45.20;;;;;;4896322;29;20499;-75
2022/03/26 09:06:29;;;;;;;39.47;35.67;;;22.80;45.60;;;;;;4896065;29;21254;-75
2022/03/26 09:08:56;;;;;;;42.00;37.60;;;22.80;45.10;;;;;;4896002;29;20491;-75
2022/03/26 09:11:22;;;;;;;39.37;35.40;;;22.40;45.20;;;;;;4896342;29;20463;-76
2022/03/26 09:13:49;;;;;;;40.23;36.40;;;22.40;45.50;;;;;;4896635;29;20546;-73
2022/03/26 09:16:17;;;;;;;42.20;37.50;;;22.40;44.90;;;;;;4896419;29;20455;-74
2022/03/26 09:18:43;;;;;;;39.40;35.50;;;21.80;45.20;;;;;;4896147;29;21053;-75
2022/03/26 09:21:11;;;;;;;41.57;36.37;;;21.60;45.90;;;;;;4896088;29;20458;-75
2022/03/26 09:23:39;;;;;;;41.87;37.57;;;21.50;45.60;;;;;;4896031;29;20587;-74
2022/03/26 09:26:06;;;;;;;40.77;36.63;;;21.90;45.50;;;;;;4896121;29;20808;-76
2022/03/26 09:28:32;;;;;;;39.70;35.90;;;22.20;45.20;;;;;;4895978;29;20522;-74
2022/03/26 09:30:59;;;;;;;42.37;38.30;;;22.80;44.90;;;;;;4896050;29;20491;-75
2022/03/26 09:33:26;;;;;;;41.03;37.20;;;23.20;43.40;;;;;;4896043;29;20455;-75
2022/03/26 09:35:52;;;;;;;44.60;40.30;;;23.20;44.30;;;;;;4895892;29;20465;-75
2022/03/26 09:38:19;;;;;;;41.20;37.30;;;23.70;43.40;;;;;;4896132;29;20872;-73
2022/03/26 09:40:48;;;;;;;42.73;38.93;;;23.50;43.40;;;;;;4896272;29;20508;-75
2022/03/26 09:43:16;;;;;;;41.20;37.10;;;24.00;42.90;;;;;;4895784;29;20499;-75
2022/03/26 09:45:42;;;;;;;44.00;39.97;;;24.70;41.30;;;;;;4896006;29;20534;-75
2022/03/26 09:48:09;;;;;;;45.70;41.47;;;24.80;41.70;;;;;;4896057;29;20455;-75
2022/03/26 09:50:40;;;;;;;43.87;39.83;;;24.60;41.30;;;;;;4896127;29;20459;-76
2022/03/26 09:53:10;;;;;;;42.73;38.53;;;24.30;41.80;;;;;;4896170;29;20455;-76
2022/03/26 09:55:37;;;;;;;48.30;41.10;;;25.00;40.20;;;;;;4896057;29;20470;-75
2022/03/26 09:58:06;;;;;;;44.63;39.90;;;25.40;39.50;;;;;;4895670;29;20519;-73
2022/03/26 10:00:32;;;;;;;43.77;39.30;;;25.90;38.70;;;;;;4895628;29;20463;-73
2022/03/26 10:02:59;;;;;;;44.73;40.37;;;25.30;39.50;;;;;;4895575;29;20490;-75
2022/03/26 10:05:33;;;;;;;49.80;37.73;;;25.40;39.60;;;;;;4895337;29;20487;-74
2022/03/26 10:08:15;;;;;;;42.90;39.07;;;26.30;38.50;;;;;;4895351;29;20518;-75
2022/03/26 10:10:45;;;;;;;45.03;40.93;;;27.00;35.80;;;;;;4895650;29;20550;-76
2022/03/26 10:13:13;;;;;;;44.60;40.50;;;26.30;35.20;;;;;;4895373;29;20542;-74
2022/03/26 10:16:00;;;;;;;44.17;39.70;;;25.10;35.60;;;;;;4895523;29;20455;-75
2022/03/26 10:18:27;;;;;;;46.17;41.67;;;25.50;36.50;;;;;;4895922;29;20626;-76
2022/03/26 10:20:58;;;;;;;44.77;40.53;;;25.40;36.50;;;;;;4895963;29;20465;-75
2022/03/26 10:23:27;;;;;;;45.10;41.00;;;25.80;36.60;;;;;;4898625;29;20514;-76
2022/03/26 10:26:05;;;;;;;43.93;40.00;;;25.80;36.00;;;;;;4898605;29;20504;-75
2022/03/26 10:28:33;;;;;;;44.50;40.60;;;26.50;35.30;;;;;;4898880;29;20503;-75
2022/03/26 10:34:08;;;;;;;43.30;39.13;;;25.40;34.30;;;;;;4898548;29;20423;-76
2022/03/26 10:36:39;;;;;;;42.47;38.47;;;24.30;35.10;;;;;;4898494;29;20455;-75
2022/03/26 10:39:07;;;;;;;42.40;38.60;;;24.40;35.60;;;;;;4898690;29;20455;-75
2022/03/26 10:41:35;;;;;;;40.77;37.00;;;24.10;35.50;;;;;;4908633;29;20541;-76
2022/03/26 10:44:11;;;;;;;41.70;37.53;;;23.90;36.30;;;;;;4917169;29;20473;-76
2022/03/26 10:46:43;;;;;;;41.70;37.70;;;23.50;36.20;;;;;;4917083;29;20963;-76
2022/03/26 10:49:11;;;;;;;41.23;37.53;;;23.50;35.60;;;;;;4917094;29;20478;-77
2022/03/26 10:51:40;;;;;;;41.83;37.90;;;23.70;34.70;;;;;;4917349;29;20454;-75
2022/03/26 10:54:12;;;;;;;42.03;38.10;;;23.10;34.00;;;;;;4917287;29;20486;-76
2022/03/26 10:56:40;;;;;;;41.43;37.43;;;23.20;35.10;;;;;;4917481;29;20477;-75
2022/03/26 10:59:07;;;;;;;38.97;35.23;;;23.80;34.90;;;;;;4917916;29;20458;-74
2022/03/26 11:01:36;;;;;;;38.90;35.30;;;23.80;34.20;;;;;;4917967;29;20518;-75
2022/03/26 11:04:03;;;;;;;39.43;35.83;;;23.70;34.00;;;;;;4917567;29;20584;-75
2022/03/26 11:06:34;;;;;;;44.30;39.83;;;23.80;34.30;;;;;;4917313;29;20482;-72
2022/03/26 11:09:02;;;;;;;39.63;36.13;;;23.50;34.30;;;;;;4917751;29;20461;-73
2022/03/26 11:11:30;;;;;;;43.47;39.17;;;23.70;34.90;;;;;;4917510;29;20462;-74
2022/03/26 11:14:01;;;;;;;42.10;37.77;;;23.60;34.80;;;;;;4917483;29;20713;-73
2022/03/26 11:16:42;;;;;;;39.77;36.30;;;23.80;34.50;;;;;;4901700;29;20470;-73
2022/03/26 11:19:25;;;;;;;41.97;37.67;;;24.50;34.50;;;;;;4899007;29;20459;-75
2022/03/26 11:22:07;;;;;;;42.13;38.20;;;26.10;32.80;;;;;;4902266;29;21004;-75
2022/03/26 11:25:07;;;;;;;41.57;37.97;;;27.20;31.60;;;;;;4924502;29;20494;-75
2022/03/26 11:27:44;;;;;;;41.93;38.30;;;27.70;31.30;;;;;;4927158;29;20536;-74
2022/03/26 11:30:16;;;;;;;41.17;37.37;;;27.50;30.90;;;;;;4936231;29;20792;-75
2022/03/26 11:32:46;;;;;;;42.00;38.20;;;26.80;30.90;;;;;;4935857;29;20461;-74
2022/03/26 11:35:15;;;;;;;40.80;37.23;;;26.50;30.70;;;;;;4935903;29;20457;-75
2022/03/26 11:37:52;;;;;;;41.80;37.93;;;27.20;30.30;;;;;;4936145;29;20453;-75
2022/03/26 11:40:44;;;;;;;38.57;35.33;;;27.60;29.90;;;;;;4923427;29;20525;-75
2022/03/26 11:43:10;;;;;;;37.10;34.10;;;27.80;29.00;;;;;;4916840;29;20541;-75
2022/03/26 11:51:23;;;;;;;37.80;34.53;;;25.10;31.00;;;;;;4914710;29;20594;-73
2022/03/26 11:53:57;;;;;;;38.63;35.07;;;24.70;31.40;;;;;;4915258;29;20451;-73
2022/03/26 11:56:26;;;;;;;37.00;33.83;;;25.10;31.40;;;;;;4914387;29;20462;-74
2022/03/26 11:59:25;;;;;;;37.60;34.20;;;24.70;31.60;;;;;;4916029;29;20458;-73
2022/03/26 12:01:52;;;;;;;36.40;33.53;;;24.60;31.40;;;;;;4916219;29;20553;-74
2022/03/26 12:04:25;;;;;;;37.80;34.17;;;24.60;31.20;;;;;;4915763;29;21060;-74
2022/03/26 12:06:56;;;;;;;35.70;32.30;;;25.30;31.00;;;;;;4915825;29;20498;-73
2022/03/26 12:09:30;;;;;;;36.90;33.70;;;25.80;30.10;;;;;;4916154;29;20467;-74
2022/03/26 12:12:15;;;;;;;35.30;32.17;;;25.80;29.30;;;;;;4916305;29;20465;-73
2022/03/26 12:15:21;;;;;;;37.50;34.10;;;24.90;30.10;;;;;;4916154;29;20456;-73
2022/03/26 12:17:48;;;;;;;35.40;32.47;;;24.40;30.20;;;;;;4897100;29;20473;-74
2022/03/26 12:20:22;;;;;;;33.93;30.67;;;24.50;30.40;;;;;;4916074;29;20461;-74
2022/03/26 12:22:51;;;;;;;33.10;29.90;;;24.60;29.90;;;;;;4915965;29;20880;-73
2022/03/26 12:25:18;;;;;;;34.80;31.67;;;24.10;30.60;;;;;;4913910;29;21016;-73
2022/03/26 12:27:45;;;;;;;34.57;31.53;;;24.40;30.00;;;;;;4915666;29;20605;-74
2022/03/26 12:30:14;;;;;;;34.30;30.83;;;24.30;29.70;;;;;;4915390;29;20545;-73
2022/03/26 12:32:42;;;;;;;34.50;31.40;;;25.00;30.00;;;;;;4915534;29;20476;-72
2022/03/26 12:35:10;;;;;;;32.80;29.83;;;25.60;29.20;;;;;;4915397;29;20911;-72
2022/03/26 12:37:39;;;;;;;31.47;28.73;;;25.90;28.30;;;;;;4915584;29;20458;-72
2022/03/26 12:40:08;;;;;;;31.67;29.20;;;25.30;28.00;;;;;;4915585;29;20494;-73
2022/03/26 12:42:35;;;;;;;31.93;29.27;;;25.60;28.10;;;;;;4915552;29;21028;-73
2022/03/26 12:45:13;;;;;;;32.80;29.87;;;25.40;27.80;;;;;;4914258;29;20569;-73
2022/03/26 12:47:44;;;;;;;31.17;28.50;;;25.10;27.10;;;;;;4915266;29;21028;-72
2022/03/26 12:50:10;;;;;;;32.33;29.80;;;25.60;26.80;;;;;;4914827;29;20869;-74
2022/03/26 12:52:39;;;;;;;31.67;28.97;;;26.30;26.90;;;;;;4915127;29;20465;-73
2022/03/26 12:55:07;;;;;;;31.20;28.77;;;25.40;27.30;;;;;;4915176;29;20932;-73
2022/03/26 13:00:21;;;;;;;30.20;27.80;;;25.90;27.00;;;;;;4914145;29;20430;-73
2022/03/26 13:02:59;;;;;;;29.17;26.80;;;26.20;26.50;;;;;;4915086;29;20450;-72
2022/03/26 13:05:28;;;;;;;28.30;25.90;;;26.00;26.50;;;;;;4914514;29;21130;-72
2022/03/26 13:07:56;;;;;;;28.93;26.53;;;25.60;26.90;;;;;;4914775;29;20462;-73
2022/03/26 13:10:30;;;;;;;33.60;30.40;;;26.10;26.60;;;;;;4914903;29;20537;-72
2022/03/26 13:12:56;;;;;;;30.77;28.00;;;26.10;26.80;;;;;;4914684;29;20454;-72
2022/03/26 13:15:23;;;;;;;29.60;27.23;;;25.50;27.00;;;;;;4914928;29;20447;-72
2022/03/26 13:17:50;;;;;;;33.17;30.07;;;24.80;28.00;;;;;;4915430;29;20841;-73
2022/03/26 13:20:25;;;;;;;27.83;25.63;;;24.30;28.00;;;;;;4914782;29;21044;-73
2022/03/26 13:22:56;;;;;;;27.50;25.13;;;24.30;27.90;;;;;;4915263;29;20800;-74
2022/03/26 13:25:23;;;;;;;29.10;26.70;;;24.10;27.80;;;;;;4914945;29;20606;-73
2022/03/26 13:27:50;;;;;;;27.43;25.03;;;24.20;28.20;;;;;;4915083;29;20869;-73
2022/03/26 13:30:18;;;;;;;29.33;26.63;;;24.00;28.20;;;;;;4914903;29;20473;-73
2022/03/26 13:32:45;;;;;;;28.60;26.20;;;24.20;28.10;;;;;;4914840;29;20458;-73
2022/03/26 13:35:15;;;;;;;28.50;26.00;;;23.80;28.50;;;;;;4914663;29;20450;-73
2022/03/26 13:37:47;;;;;;;30.77;28.30;;;23.60;28.30;;;;;;4914486;29;20458;-74
2022/03/26 13:40:15;;;;;;;29.07;26.67;;;23.70;28.60;;;;;;4914649;29;20554;-73
2022/03/26 13:42:44;;;;;;;27.40;24.90;;;24.00;28.50;;;;;;4914554;29;20462;-73
2022/03/26 13:45:11;;;;;;;29.40;26.80;;;24.10;28.60;;;;;;4914522;29;20553;-72
2022/03/26 13:47:39;;;;;;;28.87;26.60;;;23.60;27.90;;;;;;4914724;29;20541;-73
2022/03/26 13:50:07;;;;;;;27.90;25.60;;;23.90;28.30;;;;;;4914871;29;20469;-73
2022/03/26 13:52:36;;;;;;;27.80;25.23;;;23.60;28.60;;;;;;4914760;29;20941;-73
2022/03/26 13:55:29;;;;;;;27.67;25.37;;;24.10;28.80;;;;;;4914663;29;20466;-73
2022/03/26 13:57:57;;;;;;;27.47;25.00;;;24.20;28.40;;;;;;4914422;29;20461;-73
2022/03/26 14:00:27;;;;;;;29.10;26.60;;;23.80;27.70;;;;;;4914364;29;20522;-73
2022/03/26 14:02:55;;;;;;;27.57;25.27;;;23.60;28.00;;;;;;4914396;29;20450;-73
2022/03/26 14:05:26;;;;;;;29.43;26.87;;;23.40;28.50;;;;;;4914378;29;20573;-73
2022/03/26 14:07:56;;;;;;;25.77;23.70;;;23.20;28.50;;;;;;4914399;29;20550;-73
2022/03/26 14:10:33;;;;;;;29.80;27.20;;;23.00;28.20;;;;;;4914475;29;20946;-73
2022/03/26 14:13:00;;;;;;;27.17;24.90;;;22.30;28.90;;;;;;4914474;29;20603;-74
2022/03/26 14:15:28;;;;;;;27.17;24.80;;;21.60;29.30;;;;;;4914038;29;21055;-72
2022/03/26 14:17:55;;;;;;;29.00;26.43;;;20.80;30.00;;;;;;4914114;29;20541;-72
2022/03/26 14:20:22;;;;;;;26.00;23.70;;;20.40;30.40;;;;;;4914334;29;20459;-73
2022/03/26 14:22:48;;;;;;;25.97;23.77;;;20.10;30.90;;;;;;4914298;29;20893;-72
2022/03/26 14:25:15;;;;;;;26.07;23.90;;;19.90;31.00;;;;;;4914126;29;20494;-72
2022/03/26 14:27:43;;;;;;;27.60;25.30;;;19.90;30.60;;;;;;4913978;29;20465;-72
2022/03/26 14:30:10;;;;;;;26.23;23.83;;;19.80;31.30;;;;;;4914015;29;20510;-72
2022/03/26 14:32:37;;;;;;;26.00;23.80;;;19.70;31.70;;;;;;4913956;29;20458;-71
2022/03/26 14:35:05;;;;;;;27.03;24.50;;;19.70;32.70;;;;;;4914327;29;20988;-72
2022/03/26 14:37:31;;;;;;;26.43;24.20;;;19.80;32.50;;;;;;4914026;29;20477;-73
2022/03/26 14:39:58;;;;;;;27.30;25.10;;;19.80;32.10;;;;;;4913759;29;20454;-72
2022/03/26 14:42:25;;;;;;;26.20;23.90;;;19.80;32.50;;;;;;4913935;29;20481;-72
2022/03/26 14:44:53;;;;;;;26.27;23.63;;;19.70;32.50;;;;;;4913793;29;20840;-72
2022/03/26 14:47:19;;;;;;;25.70;23.60;;;19.70;32.10;;;;;;4913959;29;20999;-73
2022/03/26 14:49:46;;;;;;;28.60;25.93;;;19.70;31.80;;;;;;4914007;29;20458;-73
2022/03/26 14:52:13;;;;;;;26.20;23.90;;;19.60;31.50;;;;;;4913908;29;20521;-73
2022/03/26 14:54:39;;;;;;;24.90;22.80;;;19.50;31.90;;;;;;4913869;29;20454;-73
2022/03/26 14:57:06;;;;;;;26.17;23.73;;;19.50;32.60;;;;;;4914136;29;20997;-72
2022/03/26 14:59:33;;;;;;;25.00;22.50;;;19.60;32.50;;;;;;4914014;29;20454;-72
2022/03/26 15:02:01;;;;;;;26.00;23.67;;;19.50;32.00;;;;;;4913751;29;20945;-73
2022/03/26 15:04:28;;;;;;;23.17;21.10;;;19.40;31.80;;;;;;4913452;29;20494;-73
2022/03/26 15:06:55;;;;;;;25.53;23.33;;;19.40;32.00;;;;;;4913746;29;20482;-73
2022/03/26 15:09:21;;;;;;;26.07;23.63;;;19.50;32.80;;;;;;4917270;29;20462;-73
2022/03/26 15:11:48;;;;;;;23.73;21.60;;;19.60;32.50;;;;;;4917419;29;20823;-72
2022/03/26 15:14:15;;;;;;;24.53;22.33;;;19.50;32.50;;;;;;4917316;29;20465;-73
2022/03/26 15:16:41;;;;;;;26.87;22.60;;;19.50;32.60;;;;;;4917261;29;20462;-73
2022/03/26 15:19:10;;;;;;;23.97;21.87;;;19.50;32.20;;;;;;4917004;29;20457;-74
2022/03/26 15:21:37;;;;;;;23.13;21.23;;;19.50;32.20;;;;;;4917198;29;20522;-73
2022/03/26 15:24:03;;;;;;;23.77;21.93;;;19.40;32.30;;;;;;4917262;29;20514;-73
2022/03/26 15:26:30;;;;;;;24.00;21.90;;;19.30;32.30;;;;;;4917409;29;20968;-72
2022/03/26 15:28:57;;;;;;;24.33;22.10;;;19.30;32.50;;;;;;4925327;29;20794;-72
2022/03/26 15:31:24;;;;;;;26.00;23.70;;;19.20;32.40;;;;;;4926321;29;20847;-71
2022/03/26 15:33:51;;;;;;;23.67;21.67;;;19.20;32.60;;;;;;4922182;29;20450;-73
2022/03/26 15:36:19;;;;;;;24.17;22.00;;;19.20;32.80;;;;;;4925381;29;20536;-73
2022/03/26 15:38:45;;;;;;;24.50;22.30;;;19.10;33.10;;;;;;4926064;29;20453;-73
2022/03/26 15:41:12;;;;;;;22.90;20.90;;;19.20;33.30;;;;;;4924529;29;20489;-73
2022/03/26 15:43:39;;;;;;;26.20;23.97;;;19.10;33.60;;;;;;4924954;29;20454;-73
2022/03/26 15:46:06;;;;;;;25.73;23.40;;;19.10;33.40;;;;;;4925845;29;20500;-73
2022/03/26 15:48:33;;;;;;;24.47;22.37;;;19.10;33.70;;;;;;4924423;29;20549;-72
2022/03/26 15:50:59;;;;;;;24.03;21.90;;;19.00;33.80;;;;;;4924779;29;20449;-73
2022/03/26 15:53:27;;;;;;;26.87;24.37;;;19.00;34.10;;;;;;4925786;29;20446;-72
2022/03/26 15:55:54;;;;;;;24.47;22.37;;;19.10;34.20;;;;;;4924423;29;20447;-72
2022/03/26 15:58:21;;;;;;;27.47;25.17;;;19.10;34.60;;;;;;4924491;29;20438;-73
2022/03/26 16:00:48;;;;;;;24.50;22.00;;;19.10;33.70;;;;;;4925693;29;20852;-73
2022/03/26 16:03:16;;;;;;;25.10;22.93;;;19.00;34.00;;;;;;4924256;29;20443;-73
2022/03/26 16:05:42;;;;;;;23.83;21.83;;;18.90;34.00;;;;;;4923700;29;20548;-72
2022/03/26 16:08:09;;;;;;;25.43;23.40;;;18.90;34.10;;;;;;4925545;29;20489;-72
2022/03/26 16:10:37;;;;;;;25.33;23.13;;;18.80;33.80;;;;;;4924519;29;20501;-72
2022/03/26 16:13:04;;;;;;;27.13;24.70;;;18.80;34.00;;;;;;4923955;29;20883;-72
2022/03/26 16:15:31;;;;;;;24.90;22.60;;;18.80;34.40;;;;;;4921153;29;20442;-71
2022/03/26 16:17:57;;;;;;;23.60;21.57;;;18.70;35.10;;;;;;4924526;29;20508;-72
2022/03/26 16:20:24;;;;;;;22.17;20.37;;;18.70;34.80;;;;;;4925142;29;20865;-72
2022/03/26 16:22:51;;;;;;;24.03;21.83;;;18.60;34.50;;;;;;4921292;29;20451;-72
2022/03/26 16:25:18;;;;;;;24.37;22.37;;;18.60;34.60;;;;;;4924365;29;20580;-72
2022/03/26 16:27:48;;;;;;;24.43;22.30;;;18.60;34.90;;;;;;4925263;29;20937;-73
2022/03/26 16:30:14;;;;;;;23.47;21.20;;;18.40;34.70;;;;;;4921747;29;20459;-74
2022/03/26 16:32:41;;;;;;;23.27;21.07;;;18.40;34.80;;;;;;4923783;29;20450;-72
2022/03/26 16:35:09;;;;;;;24.50;22.10;;;18.30;35.00;;;;;;4925206;29;20813;-72
2022/03/26 16:37:37;;;;;;;24.00;21.70;;;18.30;35.30;;;;;;4923913;29;20518;-73
2022/03/26 16:40:05;;;;;;;25.87;23.57;;;18.20;35.20;;;;;;4923420;29;20453;-72
2022/03/26 16:42:32;;;;;;;22.10;20.17;;;18.20;35.30;;;;;;4920967;29;20826;-73
2022/03/26 16:45:00;;;;;;;27.00;24.60;;;18.10;35.30;;;;;;4923889;29;20640;-72
2022/03/26 16:47:27;;;;;;;23.80;21.83;;;18.10;35.30;;;;;;4924912;29;20450;-72
2022/03/26 16:49:53;;;;;;;22.20;20.30;;;18.00;35.20;;;;;;4923139;29;20549;-72
2022/03/26 16:52:20;;;;;;;23.83;21.63;;;18.00;34.90;;;;;;4923855;29;20453;-72
2022/03/26 16:54:47;;;;;;;24.73;22.00;;;17.90;34.80;;;;;;4933887;29;20457;-72
2022/03/26 16:57:14;;;;;;;25.80;23.37;;;17.90;35.00;;;;;;4934463;29;20462;-73
2022/03/26 16:59:40;;;;;;;24.20;21.70;;;17.80;34.70;;;;;;4934489;29;21035;-72
2022/03/26 17:02:09;;;;;;;23.77;21.57;;;17.70;35.10;;;;;;4934695;29;20480;-73
2022/03/26 17:04:35;;;;;;;22.43;20.03;;;17.70;34.90;;;;;;4933662;29;20522;-74
2022/03/26 17:07:04;;;;;;;22.80;20.90;;;17.60;35.00;;;;;;4922943;29;20494;-73
2022/03/26 17:09:30;;;;;;;22.87;20.80;;;17.50;34.70;;;;;;4922890;29;20486;-72
2022/03/26 17:11:57;;;;;;;21.67;19.90;;;17.50;34.70;;;;;;4924453;29;20446;-74
2022/03/26 17:14:24;;;;;;;21.27;19.43;;;17.40;34.50;;;;;;4923186;29;20459;-72
2022/03/26 17:16:50;;;;;;;22.50;20.40;;;17.30;34.80;;;;;;4923053;29;20438;-73
2022/03/26 17:19:19;;;;;;;21.43;19.37;;;17.20;34.60;;;;;;4924385;29;20448;-71
2022/03/26 17:21:48;;;;;;;21.70;19.70;;;17.10;34.70;;;;;;4923400;29;20450;-71
2022/03/26 17:24:15;;;;;;;20.77;19.07;;;16.90;34.30;;;;;;4922336;29;20450;-70
2022/03/26 17:26:42;;;;;;;21.07;19.37;;;16.90;34.20;;;;;;4923630;29;20849;-72
2022/03/26 17:29:08;;;;;;;19.77;17.97;;;16.90;34.20;;;;;;4923417;29;20446;-72
2022/03/26 17:31:35;;;;;;;21.30;18.60;;;16.80;34.60;;;;;;4921804;29;20454;-71
2022/03/26 17:34:02;;;;;;;19.40;17.60;;;16.70;34.10;;;;;;4923697;29;20454;-71
2022/03/26 17:36:30;;;;;;;22.07;20.17;;;16.70;34.50;;;;;;4923534;29;20470;-72
2022/03/26 17:38:57;;;;;;;20.27;18.30;;;16.60;34.40;;;;;;4921922;29;21176;-72
2022/03/26 17:41:24;;;;;;;20.83;18.80;;;16.50;34.50;;;;;;4923455;29;20524;-71
2022/03/26 17:43:51;;;;;;;19.50;17.80;;;16.40;34.80;;;;;;4923711;29;20450;-73
2022/03/26 17:46:18;;;;;;;20.53;18.67;;;16.40;34.80;;;;;;4922121;29;20479;-73
2022/03/26 17:48:45;;;;;;;20.47;18.57;;;16.30;34.70;;;;;;4923057;29;20999;-73
2022/03/26 17:51:13;;;;;;;18.80;17.00;;;16.30;34.60;;;;;;4923785;29;20459;-72